createdAt,value
2022-08-27T00:01:23.941Z,13.07
2022-08-27T00:03:53.872Z,12.55
2022-08-27T00:06:21.656Z,14.25
2022-08-27T00:08:50.258Z,14.68
2022-08-27T00:11:19.096Z,13.35
2022-08-27T00:13:47.017Z,17.00
2022-08-27T00:16:16.951Z,18.58
2022-08-27T00:18:47.985Z,13.18
2022-08-27T00:21:17.853Z,16.95
2022-08-27T00:23:45.457Z,13.93
2022-08-27T00:26:14.397Z,16.33
2022-08-27T00:28:42.929Z,11.93
2022-08-27T00:31:12.485Z,16.00
2022-08-27T00:33:41.002Z,18.27
2022-08-27T00:36:09.466Z,13.75
2022-08-27T00:38:38.625Z,14.32
2022-08-27T00:41:08.848Z,14.50
2022-08-27T00:43:53.870Z,13.73
2022-08-27T00:46:29.908Z,14.38
2022-08-27T00:49:02.732Z,15.85
2022-08-27T00:51:30.930Z,14.13
2022-08-27T00:53:59.795Z,14.20
2022-08-27T00:56:32.927Z,19.77
2022-08-27T00:59:02.782Z,14.55
2022-08-27T01:01:33.171Z,13.68
2022-08-27T01:04:06.013Z,14.38
2022-08-27T01:06:37.560Z,18.13
2022-08-27T01:09:15.182Z,18.48
2022-08-27T01:11:43.021Z,14.30
2022-08-27T01:14:10.787Z,17.35
2022-08-27T01:16:43.515Z,12.90
2022-08-27T01:19:38.201Z,14.43
2022-08-27T01:22:27.373Z,12.57
2022-08-27T01:25:04.367Z,13.30
2022-08-27T01:27:32.151Z,15.90
2022-08-27T01:29:59.910Z,15.13
2022-08-27T01:32:31.397Z,11.75
2022-08-27T01:35:00.094Z,13.40
2022-08-27T01:37:28.440Z,17.02
2022-08-27T01:39:59.267Z,15.32
2022-08-27T01:42:38.017Z,22.33
2022-08-27T01:45:10.162Z,22.02
2022-08-27T01:47:38.411Z,15.73
2022-08-27T01:50:15.018Z,11.18
2022-08-27T01:52:42.918Z,20.65
2022-08-27T01:55:12.974Z,14.35
2022-08-27T01:57:40.690Z,15.50
2022-08-27T02:00:14.556Z,19.95
2022-08-27T02:02:42.418Z,16.27
2022-08-27T02:05:10.913Z,17.42
2022-08-27T02:07:39.375Z,14.40
2022-08-27T02:10:09.131Z,16.75
2022-08-27T02:12:37.008Z,20.02
2022-08-27T02:15:05.745Z,15.15
2022-08-27T02:17:33.378Z,25.58
2022-08-27T02:20:01.433Z,15.13
2022-08-27T02:22:29.115Z,14.52
2022-08-27T02:24:56.360Z,14.55
2022-08-27T02:27:24.978Z,22.40
2022-08-27T02:29:52.306Z,16.27
2022-08-27T02:32:31.637Z,17.70
2022-08-27T02:35:00.522Z,18.67
2022-08-27T02:37:28.775Z,16.95
2022-08-27T02:39:56.164Z,14.48
2022-08-27T02:42:23.717Z,19.67
2022-08-27T02:44:50.923Z,14.90
2022-08-27T02:47:18.575Z,32.67
2022-08-27T02:49:46.343Z,16.92
2022-08-27T02:52:13.527Z,17.55
2022-08-27T02:54:41.567Z,16.90
2022-08-27T02:57:09.378Z,21.60
2022-08-27T02:59:37.463Z,19.33
2022-08-27T03:02:05.017Z,17.88
2022-08-27T03:04:32.537Z,19.13
2022-08-27T03:07:00.582Z,17.35
2022-08-27T03:09:28.012Z,20.90
2022-08-27T03:11:55.417Z,19.25
2022-08-27T03:14:22.654Z,16.63
2022-08-27T03:16:50.014Z,19.90
2022-08-27T03:19:23.759Z,18.40
2022-08-27T03:21:54.569Z,15.63
2022-08-27T03:24:22.703Z,20.77
2022-08-27T03:26:52.622Z,18.52
2022-08-27T03:29:21.378Z,17.48
2022-08-27T03:31:48.968Z,20.17
2022-08-27T03:34:19.733Z,23.00
2022-08-27T03:36:49.003Z,23.88
2022-08-27T03:39:16.394Z,19.30
2022-08-27T03:41:55.469Z,20.35
2022-08-27T03:44:25.975Z,16.40
2022-08-27T03:46:53.302Z,19.50
2022-08-27T03:49:21.561Z,17.85
2022-08-27T03:51:51.524Z,18.90
2022-08-27T03:54:19.357Z,17.58
2022-08-27T03:56:47.142Z,18.73
2022-08-27T03:59:15.898Z,12.77
2022-08-27T04:01:44.812Z,17.33
2022-08-27T04:04:13.217Z,17.98
2022-08-27T04:06:41.218Z,16.85
2022-08-27T04:09:08.762Z,14.07
2022-08-27T04:11:36.061Z,16.88
2022-08-27T04:14:18.198Z,17.08
2022-08-27T04:16:54.457Z,17.70
2022-08-27T04:19:26.977Z,20.23
2022-08-27T04:22:02.533Z,17.80
2022-08-27T04:24:32.864Z,15.63
2022-08-27T04:27:01.442Z,17.02
2022-08-27T04:29:29.010Z,18.30
2022-08-27T04:31:56.640Z,19.75
2022-08-27T04:34:24.120Z,21.40
2022-08-27T04:36:51.646Z,17.52
2022-08-27T04:39:20.793Z,13.70
2022-08-27T04:41:52.113Z,17.73
2022-08-27T04:44:19.784Z,21.92
2022-08-27T04:46:49.262Z,18.55
2022-08-27T04:49:17.615Z,23.00
2022-08-27T04:51:44.988Z,21.35
2022-08-27T04:54:13.104Z,19.25
2022-08-27T04:56:41.510Z,20.13
2022-08-27T04:59:10.431Z,20.40
2022-08-27T05:01:39.372Z,18.67
2022-08-27T05:04:07.630Z,25.27
2022-08-27T05:06:36.736Z,24.33
2022-08-27T05:09:05.780Z,26.52
2022-08-27T05:11:34.811Z,18.02
2022-08-27T05:14:05.137Z,15.55
2022-08-27T05:16:33.229Z,20.55
2022-08-27T05:19:00.496Z,17.92
2022-08-27T05:21:31.891Z,16.15
2022-08-27T05:24:01.968Z,18.63
2022-08-27T05:26:30.472Z,22.90
2022-08-27T05:29:00.225Z,19.15
2022-08-27T05:31:28.532Z,20.85
2022-08-27T05:33:57.726Z,23.52
2022-08-27T05:36:33.911Z,19.52
2022-08-27T05:39:04.337Z,20.83
2022-08-27T05:41:34.419Z,21.63
2022-08-27T05:44:36.874Z,22.90
2022-08-27T05:46:57.068Z,25.75
2022-08-27T05:49:24.298Z,19.17
2022-08-27T05:51:51.453Z,21.40
2022-08-27T05:54:21.797Z,18.15
2022-08-27T05:56:50.132Z,14.27
2022-08-27T05:59:36.602Z,13.35
2022-08-27T06:02:06.326Z,15.93
2022-08-27T06:04:33.882Z,15.25
2022-08-27T06:07:01.156Z,18.00
2022-08-27T06:09:29.787Z,14.98
2022-08-27T06:11:59.761Z,12.45
2022-08-27T06:14:27.302Z,16.63
2022-08-27T06:16:55.710Z,15.75
2022-08-27T06:19:23.900Z,15.68
2022-08-27T06:22:00.708Z,19.30
2022-08-27T06:24:39.723Z,15.68
2022-08-27T06:27:07.045Z,16.58
2022-08-27T06:29:35.314Z,17.58
2022-08-27T06:32:03.499Z,16.08
2022-08-27T06:34:30.682Z,20.45
2022-08-27T06:36:57.958Z,18.83
2022-08-27T06:39:26.023Z,17.38
2022-08-27T06:41:53.693Z,15.90
2022-08-27T06:44:24.361Z,15.30
2022-08-27T06:46:52.276Z,14.35
2022-08-27T06:49:19.597Z,15.68
2022-08-27T06:51:48.205Z,17.08
2022-08-27T06:54:16.844Z,15.52
2022-08-27T06:56:47.012Z,13.52
2022-08-27T06:59:16.896Z,16.85
2022-08-27T07:01:47.150Z,13.90
2022-08-27T07:04:19.975Z,19.02
2022-08-27T07:06:47.539Z,16.75
2022-08-27T07:09:14.924Z,18.38
2022-08-27T07:11:43.025Z,14.18
2022-08-27T07:14:10.913Z,15.63
2022-08-27T07:16:38.848Z,14.40
2022-08-27T07:19:08.266Z,15.50
2022-08-27T07:21:36.366Z,14.85
2022-08-27T07:24:05.685Z,11.90
2022-08-27T07:26:36.110Z,12.98
2022-08-27T07:29:08.402Z,14.52
2022-08-27T07:31:36.177Z,24.08
2022-08-27T07:34:04.829Z,14.80
2022-08-27T07:36:33.515Z,15.32
2022-08-27T07:39:01.969Z,12.20
2022-08-27T07:41:31.702Z,13.40
2022-08-27T07:44:25.817Z,18.52
2022-08-27T07:46:55.981Z,18.10
2022-08-27T07:49:24.366Z,12.48
2022-08-27T07:51:52.515Z,14.88
2022-08-27T07:54:22.712Z,12.75
2022-08-27T07:56:55.713Z,12.38
2022-08-27T07:59:25.035Z,13.48
2022-08-27T08:01:55.270Z,12.60
2022-08-27T08:04:23.272Z,12.85
2022-08-27T08:06:51.695Z,13.50
2022-08-27T08:09:20.504Z,12.20
2022-08-27T08:11:48.055Z,11.07
2022-08-27T08:14:15.247Z,10.65
2022-08-27T08:16:42.778Z,10.73
2022-08-27T08:19:10.359Z,12.88
2022-08-27T08:21:38.755Z,12.02
2022-08-27T08:24:06.902Z,11.68
2022-08-27T08:26:34.830Z,11.07
2022-08-27T08:29:05.134Z,9.20
2022-08-27T08:31:32.982Z,14.88
2022-08-27T08:34:00.166Z,11.88
2022-08-27T08:36:27.611Z,11.73
2022-08-27T08:38:55.247Z,9.13
2022-08-27T08:41:50.586Z,13.05
2022-08-27T08:44:38.170Z,11.63
2022-08-27T08:47:11.542Z,12.55
2022-08-27T08:49:56.374Z,13.00
2022-08-27T08:52:30.548Z,10.45
2022-08-27T08:55:15.578Z,10.98
2022-08-27T08:58:01.320Z,10.02
2022-08-27T09:00:28.738Z,10.77
2022-08-27T09:02:56.023Z,14.25
2022-08-27T09:05:27.238Z,13.65
2022-08-27T09:08:21.265Z,9.48
2022-08-27T09:11:09.204Z,13.38
2022-08-27T09:13:52.686Z,18.48
2022-08-27T09:16:20.380Z,14.30
2022-08-27T09:18:51.276Z,12.50
2022-08-27T09:21:27.517Z,13.55
2022-08-27T09:24:07.610Z,9.02
2022-08-27T09:26:39.287Z,10.68
2022-08-27T09:29:21.719Z,10.98
2022-08-27T09:31:54.898Z,12.18
2022-08-27T09:34:23.621Z,9.77
2022-08-27T09:37:10.094Z,9.32
2022-08-27T09:39:56.798Z,11.13
2022-08-27T09:42:32.817Z,15.82
2022-08-27T09:45:00.809Z,10.10
2022-08-27T09:47:28.218Z,11.48
2022-08-27T09:50:09.903Z,11.35
2022-08-27T09:52:55.227Z,13.77
2022-08-27T09:55:43.954Z,9.63
2022-08-27T09:58:43.102Z,11.27
2022-08-27T10:01:29.214Z,11.43
2022-08-27T10:04:14.818Z,10.95
2022-08-27T10:06:48.728Z,12.77
2022-08-27T10:09:34.730Z,10.43
2022-08-27T10:12:19.618Z,13.45
2022-08-27T10:14:53.225Z,15.23
2022-08-27T10:17:42.003Z,9.75
2022-08-27T10:21:04.914Z,13.68
2022-08-27T10:23:42.447Z,8.63
2022-08-27T10:26:24.439Z,12.77
2022-08-27T10:29:21.369Z,10.02
2022-08-27T10:32:18.945Z,9.82
2022-08-27T10:35:04.954Z,7.95
2022-08-27T10:37:48.838Z,11.05
2022-08-27T10:40:18.706Z,8.63
2022-08-27T10:42:52.068Z,10.13
2022-08-27T10:45:41.840Z,10.02
2022-08-27T10:48:30.937Z,8.73
2022-08-27T10:51:02.020Z,10.38
2022-08-27T10:53:55.400Z,10.10
2022-08-27T10:57:14.483Z,11.65
2022-08-27T10:59:51.177Z,6.65
2022-08-27T11:02:37.597Z,9.25
2022-08-27T11:05:14.910Z,10.38
2022-08-27T11:07:56.759Z,11.68
2022-08-27T11:10:31.235Z,6.25
2022-08-27T11:13:05.289Z,9.57
2022-08-27T11:15:39.021Z,9.05
2022-08-27T11:18:19.869Z,6.28
2022-08-27T11:21:02.772Z,9.18
2022-08-27T11:23:36.427Z,11.75
2022-08-27T11:26:05.688Z,9.13
2022-08-27T11:28:44.416Z,5.47
2022-08-27T11:31:22.840Z,12.18
2022-08-27T11:33:58.364Z,8.55
2022-08-27T11:36:31.758Z,5.95
2022-08-27T11:39:06.292Z,13.63
2022-08-27T11:42:08.828Z,10.50
2022-08-27T11:44:43.145Z,10.27
2022-08-27T11:47:25.617Z,7.35
2022-08-27T11:50:06.408Z,12.40
2022-08-27T11:52:42.454Z,7.15
2022-08-27T11:55:21.864Z,8.93
2022-08-27T11:58:02.043Z,7.72
2022-08-27T12:00:36.570Z,10.40
2022-08-27T12:03:25.782Z,9.03
2022-08-27T12:05:55.990Z,9.30
2022-08-27T12:08:23.861Z,9.88
2022-08-27T12:11:13.124Z,9.02
2022-08-27T12:14:00.788Z,6.25
2022-08-27T12:16:34.176Z,10.90
2022-08-27T12:19:29.898Z,6.75
2022-08-27T12:22:25.109Z,7.93
2022-08-27T12:24:56.073Z,8.40
2022-08-27T12:27:26.641Z,14.00
2022-08-27T12:30:02.721Z,9.93
2022-08-27T12:32:52.612Z,8.70
2022-08-27T12:35:28.769Z,7.93
2022-08-27T12:38:12.550Z,9.57
2022-08-27T12:41:09.361Z,12.10
2022-08-27T12:43:43.359Z,9.00
2022-08-27T12:46:19.303Z,8.80
2022-08-27T12:51:27.507Z,6.32
2022-08-27T12:53:54.761Z,9.25
2022-08-27T12:57:00.799Z,6.78
2022-08-27T12:59:39.135Z,6.10
2022-08-27T13:02:15.647Z,7.50
2022-08-27T13:04:43.911Z,9.07
2022-08-27T13:07:11.693Z,7.30
2022-08-27T13:09:39.894Z,6.47
2022-08-27T13:12:17.582Z,6.78
2022-08-27T13:14:45.534Z,6.55
2022-08-27T13:17:23.001Z,6.00
2022-08-27T13:19:58.332Z,8.07
2022-08-27T13:25:18.595Z,8.27
2022-08-27T13:27:56.101Z,10.48
2022-08-27T13:30:36.308Z,8.63
2022-08-27T13:33:10.836Z,7.93
2022-08-27T13:35:41.263Z,6.43
2022-08-27T13:38:09.071Z,7.88
2022-08-27T13:41:05.794Z,6.53
2022-08-27T13:43:37.792Z,8.82
2022-08-27T13:46:09.046Z,5.35
2022-08-27T13:48:41.029Z,8.60
2022-08-27T13:51:10.046Z,8.63
2022-08-27T13:54:00.674Z,7.03
2022-08-27T13:56:31.887Z,8.65
2022-08-27T13:59:16.328Z,7.45
2022-08-27T14:02:03.695Z,8.45
2022-08-27T14:04:44.062Z,6.55
2022-08-27T14:07:14.017Z,5.38
2022-08-27T14:09:55.721Z,6.85
2022-08-27T14:12:33.834Z,7.50
2022-08-27T14:15:24.108Z,8.48
2022-08-27T14:17:51.800Z,10.70
2022-08-27T14:20:20.706Z,7.50
2022-08-27T14:22:48.770Z,7.70
2022-08-27T14:25:17.743Z,6.70
2022-08-27T14:27:53.916Z,9.32
2022-08-27T14:30:29.166Z,6.43
2022-08-27T14:33:01.540Z,7.22
2022-08-27T14:35:33.552Z,7.68
2022-08-27T14:38:22.535Z,7.55
2022-08-27T14:40:52.421Z,7.05
2022-08-27T14:43:23.070Z,7.35
2022-08-27T14:45:52.145Z,7.45
2022-08-27T14:48:28.835Z,8.18
2022-08-27T14:50:57.184Z,7.57
2022-08-27T14:53:25.275Z,7.05
2022-08-27T14:55:52.894Z,8.52
2022-08-27T14:58:20.959Z,10.60
2022-08-27T15:00:48.822Z,5.07
2022-08-27T15:03:16.019Z,9.00
2022-08-27T15:05:43.489Z,5.07
2022-08-27T15:08:13.327Z,7.05
2022-08-27T15:10:41.084Z,11.25
2022-08-27T15:13:11.394Z,8.10
2022-08-27T15:15:39.092Z,8.10
2022-08-27T15:18:06.886Z,8.10
2022-08-27T15:20:34.494Z,7.07
2022-08-27T15:23:02.183Z,7.60
2022-08-27T15:25:30.837Z,5.57
2022-08-27T15:27:58.398Z,8.93
2022-08-27T15:30:29.045Z,10.10
2022-08-27T15:32:56.773Z,7.15
2022-08-27T15:35:26.935Z,7.95
2022-08-27T15:37:56.585Z,11.60
2022-08-27T15:40:26.016Z,11.57
2022-08-27T15:43:02.203Z,8.35
2022-08-27T15:45:31.562Z,12.27
2022-08-27T15:48:00.198Z,15.48
2022-08-27T15:50:28.776Z,14.57
2022-08-27T15:53:00.156Z,9.15
2022-08-27T15:55:31.597Z,7.95
2022-08-27T15:58:00.129Z,6.32
2022-08-27T16:00:28.319Z,7.63
2022-08-27T16:02:57.170Z,7.78
2022-08-27T16:05:27.916Z,11.68
2022-08-27T16:07:55.120Z,8.35
2022-08-27T16:10:22.620Z,10.82
2022-08-27T16:12:50.036Z,8.77
2022-08-27T16:15:17.544Z,9.07
2022-08-27T16:17:45.180Z,7.82
2022-08-27T16:20:15.584Z,9.10
2022-08-27T16:22:43.924Z,9.10
2022-08-27T16:25:15.336Z,10.80
2022-08-27T16:27:45.523Z,10.63
2022-08-27T16:30:13.690Z,10.98
2022-08-27T16:32:40.880Z,9.20
2022-08-27T16:35:08.985Z,9.25
2022-08-27T16:37:36.440Z,8.88
2022-08-27T16:40:04.299Z,5.93
2022-08-27T16:42:33.304Z,9.75
2022-08-27T16:45:01.768Z,9.40
2022-08-27T16:47:28.979Z,12.02
2022-08-27T16:50:24.229Z,8.77
2022-08-27T16:52:53.353Z,19.33
2022-08-27T16:55:20.563Z,10.77
2022-08-27T16:57:47.804Z,9.88
2022-08-27T17:00:15.370Z,14.40
2022-08-27T17:02:42.603Z,11.20
2022-08-27T17:05:33.551Z,10.13
2022-08-27T17:07:59.453Z,9.07
2022-08-27T17:10:32.667Z,13.48
2022-08-27T17:13:00.324Z,11.35
2022-08-27T17:15:27.439Z,10.45
2022-08-27T17:17:54.899Z,10.40
2022-08-27T17:20:22.187Z,11.23
2022-08-27T17:22:49.588Z,9.85
2022-08-27T17:25:16.678Z,12.05
2022-08-27T17:27:44.022Z,12.80
2022-08-27T17:30:11.626Z,8.60
2022-08-27T17:32:42.056Z,7.35
2022-08-27T17:35:10.946Z,10.25
2022-08-27T17:37:38.485Z,8.82
2022-08-27T17:40:06.930Z,5.90
2022-08-27T17:42:34.500Z,9.07
2022-08-27T17:45:01.708Z,10.70
2022-08-27T17:47:29.951Z,9.30
2022-08-27T17:49:59.004Z,10.18
2022-08-27T17:52:28.237Z,9.07
2022-08-27T17:54:56.777Z,12.50
2022-08-27T17:57:40.358Z,14.63
2022-08-27T18:00:11.810Z,9.82
2022-08-27T18:02:47.467Z,11.75
2022-08-27T18:05:17.203Z,13.15
2022-08-27T18:07:45.456Z,17.23
2022-08-27T18:10:16.442Z,15.30
2022-08-27T18:12:44.670Z,11.43
2022-08-27T18:15:29.546Z,15.73
2022-08-27T18:17:57.477Z,9.50
2022-08-27T18:20:27.516Z,10.43
2022-08-27T18:22:55.212Z,11.75
2022-08-27T18:25:25.424Z,14.95
2022-08-27T18:27:58.549Z,7.90
2022-08-27T18:30:25.956Z,14.43
2022-08-27T18:32:53.596Z,9.38
2022-08-27T18:35:23.047Z,10.95
2022-08-27T18:37:50.608Z,7.50
2022-08-27T18:40:20.823Z,15.10
2022-08-27T18:42:49.208Z,11.93
2022-08-27T18:45:25.701Z,13.52
2022-08-27T18:47:56.362Z,11.43
2022-08-27T18:50:25.080Z,15.63
2022-08-27T18:52:55.359Z,13.02
2022-08-27T18:55:28.354Z,12.07
2022-08-27T18:57:55.525Z,12.73
2022-08-27T19:00:22.923Z,10.90
2022-08-27T19:02:52.601Z,13.20
2022-08-27T19:05:25.285Z,19.65
2022-08-27T19:07:55.373Z,17.55
2022-08-27T19:10:23.155Z,16.92
2022-08-27T19:12:50.428Z,21.40
2022-08-27T19:15:18.292Z,21.25
2022-08-27T19:17:49.654Z,21.02
2022-08-27T19:20:18.638Z,16.42
2022-08-27T19:22:48.275Z,18.33
2022-08-27T19:25:16.553Z,17.85
2022-08-27T19:27:45.505Z,16.42
2022-08-27T19:30:14.517Z,16.15
2022-08-27T19:32:45.466Z,19.35
2022-08-27T19:35:13.113Z,14.68
2022-08-27T19:37:48.042Z,17.58
2022-08-27T19:40:22.100Z,17.00
2022-08-27T19:42:50.767Z,19.85
2022-08-27T19:45:23.716Z,14.18
2022-08-27T19:47:53.121Z,17.05
2022-08-27T19:50:21.648Z,18.15
2022-08-27T19:52:49.121Z,17.65
2022-08-27T19:55:16.794Z,18.35
2022-08-27T19:57:44.902Z,30.00
2022-08-27T20:00:14.487Z,16.95
2022-08-27T20:02:42.385Z,17.05
2022-08-27T20:05:18.729Z,18.73
2022-08-27T20:07:49.590Z,15.15
2022-08-27T20:10:22.280Z,13.88
2022-08-27T20:12:50.242Z,13.70
2022-08-27T20:15:19.520Z,14.82
2022-08-27T20:17:47.618Z,17.42
2022-08-27T20:20:21.450Z,11.30
2022-08-27T20:22:48.640Z,15.55
2022-08-27T20:25:16.293Z,13.15
2022-08-27T20:27:44.969Z,13.52
2022-08-27T20:30:17.093Z,21.60
2022-08-27T20:32:46.844Z,16.45
2022-08-27T20:35:17.818Z,17.42
2022-08-27T20:37:46.305Z,17.83
2022-08-27T20:40:21.184Z,17.58
2022-08-27T20:42:50.077Z,14.93
2022-08-27T20:45:17.652Z,16.67
2022-08-27T20:47:47.049Z,14.13
2022-08-27T20:50:16.635Z,13.85
2022-08-27T20:52:45.497Z,17.80
2022-08-27T20:55:14.324Z,15.25
2022-08-27T20:58:06.570Z,15.00
2022-08-27T21:00:36.369Z,16.45
2022-08-27T21:03:04.187Z,17.95
2022-08-27T21:05:34.487Z,12.48
2022-08-27T21:08:06.401Z,19.58
2022-08-27T21:10:35.021Z,18.08
2022-08-27T21:13:05.114Z,13.40
2022-08-27T21:15:32.927Z,12.80
2022-08-27T21:18:00.392Z,13.38
2022-08-27T21:20:27.965Z,12.90
2022-08-27T21:22:57.713Z,18.00
2022-08-27T21:25:26.090Z,14.63
2022-08-27T21:27:54.515Z,12.27
2022-08-27T21:30:21.891Z,14.82
2022-08-27T21:32:49.253Z,17.90
2022-08-27T21:35:16.579Z,12.50
2022-08-27T21:37:43.804Z,16.67
2022-08-27T21:40:11.507Z,17.63
2022-08-27T21:42:38.730Z,18.13
2022-08-27T21:45:06.418Z,13.57
2022-08-27T21:47:34.170Z,15.55
2022-08-27T21:50:01.376Z,14.13
2022-08-27T21:52:28.497Z,18.58
2022-08-27T21:54:55.804Z,18.25
2022-08-27T21:57:23.134Z,14.38
2022-08-27T21:59:51.049Z,16.73
2022-08-27T22:02:39.413Z,12.70
2022-08-27T22:05:08.669Z,19.40
2022-08-27T22:07:36.259Z,17.63
2022-08-27T22:10:04.432Z,25.23
2022-08-27T22:12:31.519Z,15.77
2022-08-27T22:14:58.906Z,16.85
2022-08-27T22:17:26.322Z,21.23
2022-08-27T22:19:53.425Z,18.83
2022-08-27T22:22:20.773Z,12.27
2022-08-27T22:24:47.948Z,18.35
2022-08-27T22:27:15.342Z,17.58
2022-08-27T22:29:42.702Z,14.88
2022-08-27T22:32:09.840Z,22.33
2022-08-27T22:34:37.116Z,14.82
2022-08-27T22:37:04.960Z,17.45
2022-08-27T22:39:32.126Z,18.10
2022-08-27T22:42:00.357Z,21.25
2022-08-27T22:44:29.442Z,23.20
2022-08-27T22:46:57.294Z,12.88
2022-08-27T22:49:24.660Z,21.00
2022-08-27T22:51:51.973Z,20.33
2022-08-27T22:54:19.306Z,19.17
2022-08-27T22:56:46.532Z,16.70
2022-08-27T22:59:14.342Z,24.50
2022-08-27T23:01:41.860Z,17.13
2022-08-27T23:04:09.318Z,17.90
2022-08-27T23:06:36.938Z,17.63
2022-08-27T23:09:04.273Z,19.15
2022-08-27T23:11:31.810Z,18.15
2022-08-27T23:13:59.907Z,25.45
2022-08-27T23:16:28.307Z,22.52
2022-08-27T23:18:55.456Z,20.58
2022-08-27T23:21:22.936Z,22.77
2022-08-27T23:23:50.266Z,20.65
2022-08-27T23:26:35.685Z,19.40
2022-08-27T23:29:03.221Z,16.63
2022-08-27T23:31:30.438Z,25.17
2022-08-27T23:33:57.694Z,20.27
2022-08-27T23:36:25.571Z,21.25
2022-08-27T23:38:52.979Z,21.05
2022-08-27T23:41:20.140Z,16.50
2022-08-27T23:43:47.532Z,21.15
2022-08-27T23:46:14.680Z,18.48
2022-08-27T23:48:41.878Z,18.17
2022-08-27T23:51:09.862Z,18.05
2022-08-27T23:53:37.623Z,15.45
2022-08-27T23:56:05.453Z,20.20
2022-08-27T23:58:32.905Z,16.58
